Aviation Digital Data Service (ADDS)

Output produced by METARs form (2319 UTC 18 October 2019)
found at http://www.aviationweather.gov/metar/data/
 
Forecast for: ZHCC (ZHENGZHOU , CN)
Text: TAF ZHCC 181914Z 1900/1924 18003MPS 3000 BR NSC TX20/1907Z TN10/1922Z
Forecast period: 0000 UTC 19 October 2019 to 0000 UTC 20 October 2019
Forecast type: FROM: standard forecast or significant change
Winds: from the S (180 degrees) at 7 MPH (6 knots; 3.1 m/s)
Visibility: 1.86 miles (2.99 km)
Ceiling: unknown
Clouds: missing
Weather: BR  (mist)